Terminal Aerodrome Forecast
Issued by NWS Dodge City, KS

Home | Current Version | Previous Version | Graphics & Text | Print | Product List | Glossary Off
Versions: 1 2 3 4 5 6 7 8 9 10 11 12 13 14 15 16 17 18 19 20 21 22 23 24 25 26 27 28 29 30 31 32

000
FTUS43 KDDC 211720
TAFDDC
TAF
KDDC 211720Z 2118/2218 19017G22KT P6SM FEW060 FEW070 OVC100
     FM220000 21008KT P6SM BKN200
     FM220300 20007KT P6SM VCTS SCT150CB
     FM220800 25006KT P6SM SCT150
     FM221000 28006KT P6SM SCT150
     FM221200 33008KT P6SM BKN020
     FM221500 02015KT P6SM BKN070=

USA.gov is the U.S. government's official web portal to all federal, state and local government web resources and services.